Time;durP1;ratioP1;P1;durP2;ratioP2;P2;SDS_P1;SDS_P2;PMS_P1;PMS_P2;Temp;Humidity;BMP_temperature;BMP_pressure;BME280_temperature;BME280_humidity;BME280_pressure;Samples;Min_cycle;Max_cycle;Signal;HPM_P1;HPM_P2
2023/01/02 00:00:17;;;;;;;2.70;0.77;;;;;;;;;;4976060;28;20422;-88
2023/01/02 00:02:43;;;;;;;4.07;0.50;;;;;;;;;;4976159;28;20942;-87
2023/01/02 00:05:09;;;;;;;2.80;1.00;;;;;;;;;;4976152;28;20506;-82
2023/01/02 00:07:35;;;;;;;3.50;1.13;;;;;;;;;;4993282;28;20837;-86
2023/01/02 00:10:01;;;;;;;7.93;0.97;;;;;;;;;;4976377;28;20420;-87
2023/01/02 00:12:27;;;;;;;4.27;1.07;;;;;;;;;;4976024;28;20466;-87
2023/01/02 00:14:56;;;;;;;1.57;0.50;;;;;;;;;;4975724;28;20922;-87
2023/01/02 00:17:22;;;;;;;1.97;0.80;;;;;;;;;;4976015;28;20420;-87
2023/01/02 00:19:47;;;;;;;3.40;0.70;;;;;;;;;;4978979;28;20515;-87
2023/01/02 00:22:13;;;;;;;3.50;1.10;;;;;;;;;;4979880;28;20418;-86
2023/01/02 00:24:39;;;;;;;3.33;1.00;;;;;;;;;;4997322;28;20805;-87
2023/01/02 00:27:05;;;;;;;3.33;0.50;;;;;;;;;;4979790;28;20481;-87
2023/01/02 00:29:31;;;;;;;5.17;1.47;;;;;;;;;;4979535;28;20486;-87
2023/01/02 00:31:58;;;;;;;5.50;0.70;;;;;;;;;;4979878;28;20518;-88
2023/01/02 00:34:24;;;;;;;5.50;1.40;;;;;;;;;;4979878;28;20428;-87
2023/01/02 00:36:50;;;;;;;2.00;0.50;;;;;;;;;;4979794;28;20417;-89
2023/01/02 00:39:16;;;;;;;3.50;1.23;;;;;;;;;;4979779;28;20409;-88
2023/01/02 00:41:42;;;;;;;2.77;0.90;;;;;;;;;;4979874;28;20908;-88
2023/01/02 00:44:08;;;;;;;4.17;1.23;;;;;;;;;;4997322;28;20403;-91
2023/01/02 00:46:34;;;;;;;4.80;1.50;;;;;;;;;;4980383;28;20889;-92
2023/01/02 00:49:00;;;;;;;6.53;1.27;;;;;;;;;;4980129;28;20415;-89
2023/01/02 00:51:26;;;;;;;7.50;1.50;;;;;;;;;;4997486;28;20424;-91
2023/01/02 00:53:52;;;;;;;4.23;1.20;;;;;;;;;;4980180;28;20422;-91
2023/01/02 00:56:18;;;;;;;4.47;1.50;;;;;;;;;;4997800;28;20247;-91
2023/01/02 00:58:43;;;;;;;2.20;1.27;;;;;;;;;;5004693;28;20411;-86
2023/01/02 01:01:09;;;;;;;3.00;1.20;;;;;;;;;;4997728;28;20191;-88
2023/01/02 01:03:35;;;;;;;4.37;1.47;;;;;;;;;;4978246;28;20171;-92
2023/01/02 01:06:08;;;;;;;4.60;2.40;;;;;;;;;;4978239;28;20225;-90
2023/01/02 01:08:35;;;;;;;4.00;2.00;;;;;;;;;;4977842;28;20459;-91
2023/01/02 01:11:11;;;;;;;4.80;1.93;;;;;;;;;;4977719;28;20504;-89
2023/01/02 01:13:37;;;;;;;9.40;2.50;;;;;;;;;;4977020;28;20414;-88
2023/01/02 01:16:04;;;;;;;6.00;1.87;;;;;;;;;;4977309;28;20412;-89
2023/01/02 01:18:30;;;;;;;2.67;1.73;;;;;;;;;;4977093;28;20426;-88
2023/01/02 01:20:56;;;;;;;6.37;1.77;;;;;;;;;;4977359;28;20428;-87
2023/01/02 01:23:22;;;;;;;3.23;1.33;;;;;;;;;;4951064;28;20816;-88
2023/01/02 01:25:48;;;;;;;2.83;1.10;;;;;;;;;;4996378;28;20476;-89
2023/01/02 01:28:14;;;;;;;7.03;1.47;;;;;;;;;;4996094;28;20767;-86
2023/01/02 01:30:40;;;;;;;4.00;1.47;;;;;;;;;;4995188;28;20414;-84
2023/01/02 01:33:06;;;;;;;4.50;1.70;;;;;;;;;;4996402;28;20470;-89
2023/01/02 01:35:34;;;;;;;2.27;0.97;;;;;;;;;;4996469;28;20743;-87
2023/01/02 01:38:00;;;;;;;4.10;1.70;;;;;;;;;;4996400;28;20422;-88
2023/01/02 01:40:26;;;;;;;8.40;2.97;;;;;;;;;;4996236;28;20408;-88
2023/01/02 01:42:52;;;;;;;4.77;1.43;;;;;;;;;;4996258;28;20417;-89
2023/01/02 01:45:21;;;;;;;7.03;2.20;;;;;;;;;;4996111;28;20895;-90
2023/01/02 01:47:49;;;;;;;6.47;2.80;;;;;;;;;;4996421;28;20645;-89
2023/01/02 01:50:21;;;;;;;3.87;1.50;;;;;;;;;;4996412;28;20498;-88
2023/01/02 01:52:48;;;;;;;2.90;1.47;;;;;;;;;;4995946;28;20415;-83
2023/01/02 01:55:23;;;;;;;6.33;1.40;;;;;;;;;;4996351;28;20409;-88
2023/01/02 01:57:53;;;;;;;4.33;2.00;;;;;;;;;;4996258;28;20451;-89
2023/01/02 02:00:19;;;;;;;5.33;2.30;;;;;;;;;;4995869;28;20445;-90
2023/01/02 02:02:46;;;;;;;5.93;1.90;;;;;;;;;;4996240;28;20412;-91
2023/01/02 02:05:14;;;;;;;8.13;1.80;;;;;;;;;;4996088;28;20412;-91
2023/01/02 02:07:43;;;;;;;5.87;2.13;;;;;;;;;;4996217;28;20558;-86
2023/01/02 02:10:09;;;;;;;4.23;1.70;;;;;;;;;;4996284;28;20509;-91
2023/01/02 02:12:35;;;;;;;4.17;1.87;;;;;;;;;;4978894;28;20920;-90
2023/01/02 02:15:01;;;;;;;7.33;2.30;;;;;;;;;;4978768;28;20417;-88
2023/01/02 02:17:39;;;;;;;5.47;2.80;;;;;;;;;;4978643;28;21185;-90
2023/01/02 02:20:24;;;;;;;4.03;2.13;;;;;;;;;;4978663;28;20417;-87
2023/01/02 02:22:50;;;;;;;8.67;2.47;;;;;;;;;;4979008;28;20421;-94
2023/01/02 02:25:42;;;;;;;5.13;2.17;;;;;;;;;;4979130;28;20416;-93
2023/01/02 02:28:28;;;;;;;3.83;2.33;;;;;;;;;;5006101;28;20251;-85
2023/01/02 02:31:00;;;;;;;6.50;2.30;;;;;;;;;;4981067;28;20458;-94
2023/01/02 02:33:36;;;;;;;8.33;2.73;;;;;;;;;;4978942;28;20415;-94
2023/01/02 02:36:14;;;;;;;4.03;2.10;;;;;;;;;;4981094;28;20464;-90
2023/01/02 02:38:55;;;;;;;9.40;2.70;;;;;;;;;;4996543;28;20495;-88
2023/01/02 02:41:31;;;;;;;4.97;2.30;;;;;;;;;;4995463;28;20516;-91
2023/01/02 02:44:16;;;;;;;6.27;3.03;;;;;;;;;;4972454;28;20865;-92
2023/01/02 02:46:41;;;;;;;7.40;1.70;;;;;;;;;;4958951;28;20479;-86
2023/01/02 02:49:13;;;;;;;8.80;1.53;;;;;;;;;;4958929;28;20434;-89
2023/01/02 02:51:51;;;;;;;6.23;2.57;;;;;;;;;;4958872;28;20177;-92
2023/01/02 02:54:20;;;;;;;3.63;2.37;;;;;;;;;;4918404;28;20440;-89
2023/01/02 02:56:46;;;;;;;7.97;1.97;;;;;;;;;;4958934;28;20525;-83
2023/01/02 02:59:12;;;;;;;5.40;2.37;;;;;;;;;;4958296;28;20476;-92
2023/01/02 03:01:40;;;;;;;6.00;1.90;;;;;;;;;;4958450;28;20430;-86
2023/01/02 03:04:16;;;;;;;6.70;3.00;;;;;;;;;;4959108;28;20758;-92
2023/01/02 03:06:52;;;;;;;9.20;2.20;;;;;;;;;;4958601;28;20473;-91
2023/01/02 03:09:25;;;;;;;4.20;2.07;;;;;;;;;;4975800;28;20510;-92
2023/01/02 03:11:57;;;;;;;3.63;1.57;;;;;;;;;;4958774;28;20413;-91
2023/01/02 03:14:42;;;;;;;4.20;2.90;;;;;;;;;;4957904;28;20421;-91
2023/01/02 03:17:18;;;;;;;5.03;2.17;;;;;;;;;;4958336;28;20421;-84
2023/01/02 03:19:47;;;;;;;4.83;1.50;;;;;;;;;;4958615;28;20904;-93
2023/01/02 03:22:15;;;;;;;11.17;2.37;;;;;;;;;;4958238;28;20950;-91
2023/01/02 03:24:42;;;;;;;8.10;2.00;;;;;;;;;;4975447;28;20471;-82
2023/01/02 03:27:14;;;;;;;4.50;1.40;;;;;;;;;;4958278;28;20476;-94
2023/01/02 03:29:47;;;;;;;5.27;2.20;;;;;;;;;;4957916;28;20427;-84
2023/01/02 03:32:16;;;;;;;6.87;1.63;;;;;;;;;;4957486;28;20798;-90
2023/01/02 03:34:47;;;;;;;3.60;1.17;;;;;;;;;;4975123;28;20412;-90
2023/01/02 03:37:16;;;;;;;7.50;1.70;;;;;;;;;;4975421;28;20404;-82
2023/01/02 03:39:48;;;;;;;5.77;1.73;;;;;;;;;;4957436;28;20485;-90
2023/01/02 03:42:20;;;;;;;5.43;2.10;;;;;;;;;;4958106;28;20428;-92
2023/01/02 03:44:49;;;;;;;8.60;1.87;;;;;;;;;;4957499;28;20414;-91
2023/01/02 03:47:15;;;;;;;6.17;1.93;;;;;;;;;;4957820;28;20482;-82
2023/01/02 03:49:43;;;;;;;5.93;2.30;;;;;;;;;;4957640;28;21035;-85
2023/01/02 03:52:09;;;;;;;6.90;3.10;;;;;;;;;;4974773;28;20211;-88
2023/01/02 03:54:35;;;;;;;4.53;1.87;;;;;;;;;;4958563;28;20947;-81
2023/01/02 03:57:04;;;;;;;4.83;1.37;;;;;;;;;;4964446;28;20996;-88
2023/01/02 03:59:38;;;;;;;4.80;2.27;;;;;;;;;;4974370;28;20443;-89
2023/01/02 04:02:19;;;;;;;4.80;2.17;;;;;;;;;;4974405;28;20818;-90
2023/01/02 04:04:56;;;;;;;6.77;1.43;;;;;;;;;;4956794;28;20822;-90
2023/01/02 04:07:33;;;;;;;5.83;1.17;;;;;;;;;;4974147;28;20467;-86
2023/01/02 04:10:00;;;;;;;3.47;1.20;;;;;;;;;;4974696;28;20443;-89
2023/01/02 04:12:27;;;;;;;8.40;1.97;;;;;;;;;;4974384;28;20461;-89
2023/01/02 04:14:58;;;;;;;7.87;1.80;;;;;;;;;;4956972;28;20468;-87
2023/01/02 04:17:26;;;;;;;5.30;1.57;;;;;;;;;;4974809;28;20416;-91
2023/01/02 04:19:58;;;;;;;8.17;2.00;;;;;;;;;;4975216;28;20849;-90
2023/01/02 04:22:26;;;;;;;7.47;1.70;;;;;;;;;;4974759;28;20555;-90
2023/01/02 04:24:54;;;;;;;6.20;1.60;;;;;;;;;;4975032;28;20455;-92
2023/01/02 04:27:28;;;;;;;5.40;1.90;;;;;;;;;;4917694;28;21036;-83
2023/01/02 04:29:55;;;;;;;4.60;1.07;;;;;;;;;;4974214;28;20420;-84
2023/01/02 04:32:27;;;;;;;7.43;1.87;;;;;;;;;;4957414;28;20427;-86
2023/01/02 04:34:53;;;;;;;5.70;1.37;;;;;;;;;;4957547;28;20418;-89
2023/01/02 04:37:27;;;;;;;5.50;0.90;;;;;;;;;;4957279;28;20423;-87
2023/01/02 04:39:53;;;;;;;5.40;1.03;;;;;;;;;;4974541;28;20493;-86
2023/01/02 04:42:19;;;;;;;3.77;1.53;;;;;;;;;;4957103;28;20427;-88
2023/01/02 04:44:45;;;;;;;4.70;1.43;;;;;;;;;;4973846;28;20519;-87
2023/01/02 04:47:11;;;;;;;4.63;1.27;;;;;;;;;;4956801;28;20216;-88
2023/01/02 04:49:37;;;;;;;6.10;2.03;;;;;;;;;;4974067;28;20176;-88
2023/01/02 04:52:03;;;;;;;6.60;1.53;;;;;;;;;;4974102;28;20451;-88
2023/01/02 04:54:29;;;;;;;3.23;1.37;;;;;;;;;;4974256;28;20408;-85
2023/01/02 04:56:55;;;;;;;6.50;1.30;;;;;;;;;;4973900;28;20482;-88
2023/01/02 04:59:21;;;;;;;4.33;0.90;;;;;;;;;;4956314;28;20206;-82
2023/01/02 05:01:46;;;;;;;6.30;1.50;;;;;;;;;;4974100;28;20188;-89
2023/01/02 05:04:12;;;;;;;7.10;1.30;;;;;;;;;;4957026;28;20172;-87
2023/01/02 05:06:38;;;;;;;6.53;1.50;;;;;;;;;;4960028;28;20426;-86
2023/01/02 05:09:04;;;;;;;4.90;0.97;;;;;;;;;;4977180;28;21026;-86
2023/01/02 05:11:30;;;;;;;7.27;2.17;;;;;;;;;;4959952;28;20517;-83
2023/01/02 05:13:56;;;;;;;4.03;1.87;;;;;;;;;;4976819;28;20510;-86
2023/01/02 05:16:22;;;;;;;3.80;1.53;;;;;;;;;;4977329;28;20470;-84
2023/01/02 05:18:48;;;;;;;6.03;2.17;;;;;;;;;;4959880;28;20450;-87
2023/01/02 05:24:00;;;;;;;4.33;1.50;;;;;;;;;;4978347;28;20446;-89
2023/01/02 05:26:27;;;;;;;4.10;1.77;;;;;;;;;;4961190;28;20908;-86
2023/01/02 05:28:53;;;;;;;4.73;1.47;;;;;;;;;;4959274;28;20428;-88
2023/01/02 05:31:22;;;;;;;7.90;2.13;;;;;;;;;;4959583;28;20433;-85
2023/01/02 05:33:58;;;;;;;5.70;1.73;;;;;;;;;;4959839;28;20483;-88
2023/01/02 05:36:27;;;;;;;4.30;1.80;;;;;;;;;;4960070;28;20426;-89
2023/01/02 05:38:56;;;;;;;2.63;0.73;;;;;;;;;;4960077;28;20514;-91
2023/01/02 05:41:23;;;;;;;4.07;1.70;;;;;;;;;;4965681;28;20423;-86
2023/01/02 05:43:48;;;;;;;5.43;1.50;;;;;;;;;;4932422;28;20445;-91
2023/01/02 05:46:19;;;;;;;4.67;1.57;;;;;;;;;;4977129;28;20460;-92
2023/01/02 05:48:45;;;;;;;7.57;2.47;;;;;;;;;;4959792;28;20710;-90
2023/01/02 05:51:12;;;;;;;6.93;2.40;;;;;;;;;;4959649;28;20427;-85
2023/01/02 05:53:38;;;;;;;6.30;1.90;;;;;;;;;;4977059;28;20421;-90
2023/01/02 05:56:04;;;;;;;4.20;2.10;;;;;;;;;;4960212;28;20432;-91
2023/01/02 05:58:31;;;;;;;4.30;2.40;;;;;;;;;;4959076;28;20412;-85
2023/01/02 06:01:02;;;;;;;4.20;1.77;;;;;;;;;;4959575;28;20437;-90
2023/01/02 06:03:28;;;;;;;9.90;2.30;;;;;;;;;;4977034;28;20403;-88
2023/01/02 06:05:53;;;;;;;5.10;2.00;;;;;;;;;;4959063;28;20466;-89
2023/01/02 06:08:19;;;;;;;5.33;2.43;;;;;;;;;;4976248;28;20230;-87
2023/01/02 06:10:49;;;;;;;5.70;2.57;;;;;;;;;;4959575;28;20180;-83
2023/01/02 06:13:15;;;;;;;5.10;2.30;;;;;;;;;;4959275;28;20186;-91
2023/01/02 06:15:41;;;;;;;5.50;2.10;;;;;;;;;;4959280;28;20528;-85
2023/01/02 06:18:07;;;;;;;4.10;1.10;;;;;;;;;;4976914;28;20429;-88
2023/01/02 06:20:33;;;;;;;7.67;2.70;;;;;;;;;;4976608;28;20416;-88
2023/01/02 06:23:01;;;;;;;6.50;2.13;;;;;;;;;;4976682;28;20473;-91
2023/01/02 06:25:36;;;;;;;7.30;1.83;;;;;;;;;;4976687;28;20766;-89
2023/01/02 06:28:02;;;;;;;7.20;1.30;;;;;;;;;;4976301;28;20763;-91
2023/01/02 06:30:28;;;;;;;5.00;1.97;;;;;;;;;;4976482;28;20809;-90
2023/01/02 06:32:57;;;;;;;4.50;2.23;;;;;;;;;;4976399;28;20412;-92
2023/01/02 06:35:26;;;;;;;4.97;1.90;;;;;;;;;;4976544;28;20750;-91
2023/01/02 06:37:55;;;;;;;7.60;1.37;;;;;;;;;;4976088;28;20915;-89
2023/01/02 06:40:24;;;;;;;6.87;2.00;;;;;;;;;;4975854;28;20505;-88
2023/01/02 06:42:50;;;;;;;6.30;2.00;;;;;;;;;;4975411;28;20414;-87
2023/01/02 06:45:16;;;;;;;8.43;3.13;;;;;;;;;;4975536;28;20927;-86
2023/01/02 06:47:45;;;;;;;7.33;1.80;;;;;;;;;;4975254;28;20501;-86
2023/01/02 06:50:14;;;;;;;6.53;2.13;;;;;;;;;;4976045;28;20415;-89
2023/01/02 06:52:39;;;;;;;8.77;1.30;;;;;;;;;;4979560;28;20416;-90
2023/01/02 06:55:06;;;;;;;6.10;2.53;;;;;;;;;;4977602;28;20899;-87
2023/01/02 06:57:37;;;;;;;3.97;1.23;;;;;;;;;;4975514;28;20414;-88
2023/01/02 07:00:04;;;;;;;6.90;1.53;;;;;;;;;;4975297;28;20419;-86
2023/01/02 07:02:35;;;;;;;7.37;1.97;;;;;;;;;;4975451;28;20434;-88
2023/01/02 07:05:09;;;;;;;5.03;1.30;;;;;;;;;;4975408;28;20528;-84
2023/01/02 07:07:38;;;;;;;5.33;1.70;;;;;;;;;;4974943;28;21007;-86
2023/01/02 07:10:04;;;;;;;4.90;2.47;;;;;;;;;;4975465;28;20510;-86
2023/01/02 07:12:30;;;;;;;4.60;2.20;;;;;;;;;;4975270;28;20410;-88
2023/01/02 07:14:56;;;;;;;5.53;1.63;;;;;;;;;;4958199;28;20431;-91
2023/01/02 07:17:22;;;;;;;3.23;2.10;;;;;;;;;;4975335;28;20413;-90
2023/01/02 07:19:48;;;;;;;3.60;2.07;;;;;;;;;;4975560;28;20424;-88
2023/01/02 07:22:20;;;;;;;7.30;1.97;;;;;;;;;;4975451;28;20904;-86
2023/01/02 07:24:46;;;;;;;3.90;1.50;;;;;;;;;;4941166;28;20779;-91
2023/01/02 07:27:12;;;;;;;3.90;1.70;;;;;;;;;;4975003;28;20526;-90
2023/01/02 07:29:38;;;;;;;3.20;1.60;;;;;;;;;;4975066;28;20973;-92
2023/01/02 07:32:04;;;;;;;4.93;1.87;;;;;;;;;;4975334;28;20519;-87
2023/01/02 07:34:30;;;;;;;6.20;1.90;;;;;;;;;;4975548;28;20177;-90
2023/01/02 07:36:58;;;;;;;2.20;1.23;;;;;;;;;;4975358;28;20425;-91
2023/01/02 07:39:27;;;;;;;7.03;2.70;;;;;;;;;;4975424;28;20412;-87
2023/01/02 07:41:53;;;;;;;8.27;1.50;;;;;;;;;;4975326;28;20466;-93
2023/01/02 07:44:18;;;;;;;10.07;2.73;;;;;;;;;;4957936;28;20924;-89
2023/01/02 07:46:44;;;;;;;5.87;1.83;;;;;;;;;;4975189;28;20840;-91
2023/01/02 07:49:37;;;;;;;6.60;2.00;;;;;;;;;;4975369;28;20472;-91
2023/01/02 07:52:09;;;;;;;4.03;1.63;;;;;;;;;;4955862;28;20427;-90
2023/01/02 07:54:36;;;;;;;4.50;1.87;;;;;;;;;;4958589;28;20484;-90
2023/01/02 07:57:02;;;;;;;4.37;2.10;;;;;;;;;;4956361;29;20553;-91
2023/01/02 07:59:28;;;;;;;3.03;0.87;;;;;;;;;;4956504;29;20412;-91
2023/01/02 08:01:54;;;;;;;5.47;2.37;;;;;;;;;;4975471;28;20789;-92
2023/01/02 08:04:20;;;;;;;3.90;1.87;;;;;;;;;;4968936;28;20404;-90
2023/01/02 08:06:49;;;;;;;5.50;1.80;;;;;;;;;;4978984;28;20474;-92
2023/01/02 08:09:15;;;;;;;4.60;1.70;;;;;;;;;;4966995;28;20461;-92
2023/01/02 08:11:44;;;;;;;2.97;1.83;;;;;;;;;;4978147;28;20429;-88
2023/01/02 08:14:10;;;;;;;4.83;1.67;;;;;;;;;;4978005;28;20442;-93
2023/01/02 08:16:36;;;;;;;3.93;1.83;;;;;;;;;;4975223;28;20434;-92
2023/01/02 08:19:02;;;;;;;7.03;1.80;;;;;;;;;;4983541;28;20417;-90
2023/01/02 08:21:28;;;;;;;3.67;1.97;;;;;;;;;;4986744;28;20481;-94
2023/01/02 08:23:54;;;;;;;3.73;1.57;;;;;;;;;;4990461;28;20438;-93
2023/01/02 08:26:20;;;;;;;3.80;1.53;;;;;;;;;;5007582;28;20478;-92
2023/01/02 08:28:46;;;;;;;5.50;2.33;;;;;;;;;;5008132;28;20445;-92
2023/01/02 08:31:21;;;;;;;7.90;1.60;;;;;;;;;;4991659;28;20407;-91
2023/01/02 08:33:50;;;;;;;4.27;1.57;;;;;;;;;;4991375;28;20406;-91
2023/01/02 08:36:16;;;;;;;3.90;2.27;;;;;;;;;;4990289;28;20407;-93
2023/01/02 08:38:42;;;;;;;2.80;1.80;;;;;;;;;;4992184;28;20414;-95
2023/01/02 08:41:11;;;;;;;4.10;1.83;;;;;;;;;;4995249;28;20410;-84
2023/01/02 08:43:37;;;;;;;3.47;1.60;;;;;;;;;;4999300;28;20529;-95
2023/01/02 08:46:04;;;;;;;7.60;2.07;;;;;;;;;;4997573;28;20467;-87
2023/01/02 08:48:30;;;;;;;7.20;1.90;;;;;;;;;;4997370;28;20459;-93
2023/01/02 08:50:56;;;;;;;5.80;2.03;;;;;;;;;;4996526;28;20454;-90
2023/01/02 08:53:22;;;;;;;6.00;1.00;;;;;;;;;;4983500;28;20865;-91
2023/01/02 08:55:48;;;;;;;10.50;2.60;;;;;;;;;;4997884;28;20218;-86
2023/01/02 08:58:14;;;;;;;1.90;0.80;;;;;;;;;;4979248;28;20182;-89
2023/01/02 09:00:40;;;;;;;4.40;1.63;;;;;;;;;;4997052;28;20413;-88
2023/01/02 09:03:06;;;;;;;2.97;1.53;;;;;;;;;;4996958;28;20424;-85
2023/01/02 09:05:32;;;;;;;6.00;1.83;;;;;;;;;;4996888;28;20410;-86
2023/01/02 09:07:58;;;;;;;5.37;1.90;;;;;;;;;;4996615;28;20493;-88
2023/01/02 09:10:24;;;;;;;6.30;2.30;;;;;;;;;;4997200;28;20430;-90
2023/01/02 09:12:50;;;;;;;5.77;1.40;;;;;;;;;;4979155;28;20425;-89
2023/01/02 09:15:16;;;;;;;7.67;2.00;;;;;;;;;;4997130;28;20419;-88
2023/01/02 09:17:42;;;;;;;9.70;2.00;;;;;;;;;;4997664;28;20259;-82
2023/01/02 09:20:08;;;;;;;8.50;1.63;;;;;;;;;;4996690;28;20508;-88
2023/01/02 09:22:34;;;;;;;5.13;1.23;;;;;;;;;;4996949;28;20419;-90
2023/01/02 09:25:00;;;;;;;5.70;1.60;;;;;;;;;;4979376;28;20783;-85
2023/01/02 09:27:26;;;;;;;4.03;1.83;;;;;;;;;;4978962;28;20532;-90
2023/01/02 09:29:52;;;;;;;5.50;2.17;;;;;;;;;;4996592;28;20522;-84
2023/01/02 09:32:18;;;;;;;4.53;3.50;;;;;;;;;;4996577;28;20216;-85
2023/01/02 09:34:49;;;;;;;3.97;1.33;;;;;;;;;;4948293;28;20435;-87
2023/01/02 09:37:15;;;;;;;3.30;1.10;;;;;;;;;;4976634;28;20196;-90
2023/01/02 09:39:41;;;;;;;4.00;0.80;;;;;;;;;;4976817;28;20406;-87
2023/01/02 09:42:13;;;;;;;7.10;1.27;;;;;;;;;;4976761;28;20422;-86
2023/01/02 09:44:42;;;;;;;12.10;1.10;;;;;;;;;;4976938;28;20184;-88
2023/01/02 09:47:13;;;;;;;2.67;0.73;;;;;;;;;;4959768;28;20966;-84
2023/01/02 09:49:50;;;;;;;5.10;1.63;;;;;;;;;;4980521;28;20428;-88
2023/01/02 09:52:20;;;;;;;8.40;1.10;;;;;;;;;;4976927;28;20498;-88
2023/01/02 09:54:45;;;;;;;4.40;1.60;;;;;;;;;;4976753;28;20408;-89
2023/01/02 09:57:21;;;;;;;3.70;0.90;;;;;;;;;;4976276;28;20420;-84
2023/01/02 09:59:53;;;;;;;3.53;1.40;;;;;;;;;;4959562;28;20435;-87
2023/01/02 10:02:37;;;;;;;6.60;2.07;;;;;;;;;;4976694;28;20412;-82
2023/01/02 10:05:03;;;;;;;3.97;1.10;;;;;;;;;;4976567;28;20407;-88
2023/01/02 10:07:47;;;;;;;2.60;1.33;;;;;;;;;;4976104;28;20563;-88
2023/01/02 10:10:13;;;;;;;4.93;1.17;;;;;;;;;;4976470;28;20264;-88
2023/01/02 10:12:42;;;;;;;6.57;1.80;;;;;;;;;;4975923;28;20443;-81
2023/01/02 10:15:15;;;;;;;4.10;0.83;;;;;;;;;;4958927;28;20209;-89
2023/01/02 10:17:45;;;;;;;5.70;1.47;;;;;;;;;;4976311;28;20921;-89
2023/01/02 10:20:14;;;;;;;2.70;0.80;;;;;;;;;;4976267;28;20770;-88
2023/01/02 10:22:42;;;;;;;4.60;1.30;;;;;;;;;;4972877;28;20799;-90
2023/01/02 10:25:14;;;;;;;4.37;1.73;;;;;;;;;;4974711;28;20426;-88
2023/01/02 10:27:52;;;;;;;4.97;1.40;;;;;;;;;;4977074;28;20546;-89
2023/01/02 10:30:19;;;;;;;5.40;1.40;;;;;;;;;;4976598;28;20409;-85
2023/01/02 10:33:08;;;;;;;3.97;1.40;;;;;;;;;;4976829;28;20827;-93
2023/01/02 10:35:41;;;;;;;2.90;1.17;;;;;;;;;;4939657;28;20849;-84
2023/01/02 10:38:10;;;;;;;5.23;1.27;;;;;;;;;;4963664;28;20923;-85
2023/01/02 10:40:37;;;;;;;4.80;0.83;;;;;;;;;;4978321;28;20777;-86
2023/01/02 10:43:03;;;;;;;7.23;1.23;;;;;;;;;;4977195;28;20424;-86
2023/01/02 10:45:29;;;;;;;3.90;1.37;;;;;;;;;;4959802;28;20485;-89
2023/01/02 10:47:58;;;;;;;4.10;0.97;;;;;;;;;;4976728;28;20474;-89
2023/01/02 10:50:26;;;;;;;2.30;1.43;;;;;;;;;;4958040;28;20540;-87
2023/01/02 10:52:53;;;;;;;3.97;0.77;;;;;;;;;;4975557;28;20411;-92
2023/01/02 10:55:30;;;;;;;2.20;0.70;;;;;;;;;;4958531;28;20423;-88
2023/01/02 10:58:01;;;;;;;3.67;0.90;;;;;;;;;;4975868;28;20415;-88
2023/01/02 11:00:29;;;;;;;5.67;1.37;;;;;;;;;;4958166;28;21040;-92
2023/01/02 11:02:56;;;;;;;5.00;2.00;;;;;;;;;;4975166;28;20934;-90
2023/01/02 11:05:26;;;;;;;2.70;0.83;;;;;;;;;;4958664;28;20475;-90
2023/01/02 11:07:53;;;;;;;6.53;1.00;;;;;;;;;;4975399;28;20499;-90
2023/01/02 11:10:50;;;;;;;1.63;0.93;;;;;;;;;;4958392;28;20425;-90
2023/01/02 11:13:46;;;;;;;3.73;1.40;;;;;;;;;;4974361;28;20412;-90
2023/01/02 11:16:13;;;;;;;4.40;1.47;;;;;;;;;;4957803;28;20769;-84
2023/01/02 11:18:44;;;;;;;3.87;0.70;;;;;;;;;;4963228;28;20463;-86
2023/01/02 11:21:10;;;;;;;6.27;1.30;;;;;;;;;;4978358;28;20893;-85
2023/01/02 11:23:37;;;;;;;3.43;0.97;;;;;;;;;;4959326;28;20430;-90
2023/01/02 11:26:04;;;;;;;2.50;0.70;;;;;;;;;;4975275;28;20553;-89
2023/01/02 11:28:32;;;;;;;1.80;0.67;;;;;;;;;;4957538;28;20782;-88
2023/01/02 11:31:05;;;;;;;3.03;0.50;;;;;;;;;;4957485;28;20423;-90
2023/01/02 11:33:33;;;;;;;0.93;0.50;;;;;;;;;;4956819;28;20458;-87
2023/01/02 11:36:05;;;;;;;6.57;0.77;;;;;;;;;;4957672;28;20941;-88
2023/01/02 11:38:42;;;;;;;3.03;0.67;;;;;;;;;;4923380;28;20453;-86
2023/01/02 11:41:21;;;;;;;2.77;0.87;;;;;;;;;;4957740;28;20462;-87
2023/01/02 11:43:51;;;;;;;2.10;0.73;;;;;;;;;;4957466;28;20413;-86
2023/01/02 11:46:23;;;;;;;2.83;0.97;;;;;;;;;;4974580;28;20467;-87
2023/01/02 11:48:51;;;;;;;3.70;0.97;;;;;;;;;;4974645;28;20423;-86
2023/01/02 11:51:18;;;;;;;1.93;0.97;;;;;;;;;;4974574;28;20473;-86
2023/01/02 11:53:47;;;;;;;3.10;0.80;;;;;;;;;;4974625;28;20445;-88
2023/01/02 11:56:34;;;;;;;3.07;0.50;;;;;;;;;;4974727;28;20757;-84
2023/01/02 11:59:15;;;;;;;1.57;0.30;;;;;;;;;;4974629;28;20488;-86
2023/01/02 12:01:48;;;;;;;1.20;0.50;;;;;;;;;;4974769;28;20408;-84
2023/01/02 12:04:15;;;;;;;1.20;0.27;;;;;;;;;;4974347;28;20415;-84
2023/01/02 12:06:52;;;;;;;0.60;0.10;;;;;;;;;;4974104;28;20490;-85
2023/01/02 12:09:21;;;;;;;0.60;0.20;;;;;;;;;;4974474;28;20461;-85
2023/01/02 12:12:11;;;;;;;1.03;0.20;;;;;;;;;;4974261;28;20462;-87
2023/01/02 12:14:43;;;;;;;0.80;0.10;;;;;;;;;;4976402;28;20791;-88
2023/01/02 12:17:24;;;;;;;0.40;0.10;;;;;;;;;;4961820;28;20919;-88
2023/01/02 12:19:50;;;;;;;0.60;0.10;;;;;;;;;;4979496;28;20439;-88
2023/01/02 12:22:19;;;;;;;0.50;0.20;;;;;;;;;;4978755;28;20439;-87
2023/01/02 12:25:00;;;;;;;0.40;0.10;;;;;;;;;;4977782;28;20423;-85
2023/01/02 12:27:35;;;;;;;0.80;0.20;;;;;;;;;;4977514;28;20514;-86
2023/01/02 12:30:06;;;;;;;0.40;0.10;;;;;;;;;;4978189;28;20419;-89
2023/01/02 12:32:51;;;;;;;0.50;0.20;;;;;;;;;;4978982;28;20439;-89
2023/01/02 12:35:43;;;;;;;0.40;0.20;;;;;;;;;;4961425;28;20501;-88
2023/01/02 12:38:10;;;;;;;0.30;0.20;;;;;;;;;;4955798;28;20417;-88
2023/01/02 12:40:42;;;;;;;0.57;0.20;;;;;;;;;;4952908;28;20427;-89
2023/01/02 12:43:27;;;;;;;0.33;0.20;;;;;;;;;;4989469;28;20409;-86
2023/01/02 12:46:10;;;;;;;0.63;0.20;;;;;;;;;;4985983;28;20415;-83
2023/01/02 12:49:11;;;;;;;0.80;0.20;;;;;;;;;;4994683;28;20426;-88
2023/01/02 12:51:37;;;;;;;0.50;0.40;;;;;;;;;;4930249;29;20420;-84
2023/01/02 12:54:09;;;;;;;0.53;0.10;;;;;;;;;;4975417;28;20446;-85
2023/01/02 12:56:42;;;;;;;0.80;0.20;;;;;;;;;;4985346;28;20408;-85
2023/01/02 12:59:27;;;;;;;0.60;0.10;;;;;;;;;;4972419;28;20420;-84
2023/01/02 13:01:53;;;;;;;0.40;0.10;;;;;;;;;;4988120;28;20459;-87
2023/01/02 13:04:19;;;;;;;0.63;0.20;;;;;;;;;;4990039;28;20432;-85
2023/01/02 13:06:48;;;;;;;3.03;0.20;;;;;;;;;;4987424;28;20903;-87
2023/01/02 13:09:17;;;;;;;1.80;0.20;;;;;;;;;;4989787;28;20505;-89
2023/01/02 13:11:50;;;;;;;1.03;0.30;;;;;;;;;;4986777;28;20639;-87
2023/01/02 13:14:19;;;;;;;0.60;0.20;;;;;;;;;;4963196;28;20429;-88
2023/01/02 13:16:50;;;;;;;0.80;0.20;;;;;;;;;;4978084;28;20415;-90
2023/01/02 13:19:22;;;;;;;0.80;0.20;;;;;;;;;;4964423;28;20554;-90
2023/01/02 13:21:56;;;;;;;0.50;0.20;;;;;;;;;;4978684;28;20415;-84
2023/01/02 13:24:23;;;;;;;1.80;0.30;;;;;;;;;;4982241;28;20426;-90
2023/01/02 13:26:50;;;;;;;0.47;0.20;;;;;;;;;;4976359;28;20468;-85
2023/01/02 13:29:16;;;;;;;2.53;0.33;;;;;;;;;;4959922;28;20426;-88
2023/01/02 13:31:46;;;;;;;0.87;0.20;;;;;;;;;;4962095;28;20410;-90
2023/01/02 13:34:31;;;;;;;3.63;0.60;;;;;;;;;;4982177;28;20480;-91
2023/01/02 13:37:05;;;;;;;0.90;0.20;;;;;;;;;;4961847;28;20504;-87
2023/01/02 13:39:41;;;;;;;1.10;0.37;;;;;;;;;;4948942;28;20438;-85
2023/01/02 13:44:59;;;;;;;0.50;0.20;;;;;;;;;;4996256;28;20402;-87
2023/01/02 13:47:30;;;;;;;1.13;0.30;;;;;;;;;;4985624;28;20465;-88
2023/01/02 13:50:16;;;;;;;0.77;0.20;;;;;;;;;;4981776;28;20881;-90
2023/01/02 13:52:53;;;;;;;1.10;0.20;;;;;;;;;;4985499;28;20433;-91
2023/01/02 13:55:30;;;;;;;0.60;0.20;;;;;;;;;;4963717;28;20415;-91
2023/01/02 13:58:17;;;;;;;0.87;0.20;;;;;;;;;;4958941;28;20409;-91
2023/01/02 14:00:47;;;;;;;1.70;0.20;;;;;;;;;;4987591;28;20910;-87
2023/01/02 14:03:28;;;;;;;0.60;0.20;;;;;;;;;;4957079;28;20424;-89
2023/01/02 14:06:00;;;;;;;0.90;0.20;;;;;;;;;;4984848;28;20941;-90
2023/01/02 14:08:32;;;;;;;1.03;0.20;;;;;;;;;;4965021;28;20528;-88
2023/01/02 14:11:12;;;;;;;0.70;0.20;;;;;;;;;;4977012;28;20422;-89
2023/01/02 14:13:40;;;;;;;0.70;0.20;;;;;;;;;;4981716;28;20419;-85
2023/01/02 14:16:24;;;;;;;0.70;0.20;;;;;;;;;;4991745;28;20429;-87
2023/01/02 14:19:15;;;;;;;2.40;0.60;;;;;;;;;;4984070;28;20427;-87
2023/01/02 14:21:59;;;;;;;7.00;2.40;;;;;;;;;;4990129;28;20417;-85
2023/01/02 14:24:42;;;;;;;3.90;1.60;;;;;;;;;;4988769;28;20443;-89
2023/01/02 14:27:14;;;;;;;1.90;0.40;;;;;;;;;;4984932;28;20466;-89
2023/01/02 14:29:43;;;;;;;1.40;0.20;;;;;;;;;;4985949;28;20851;-83
2023/01/02 14:32:17;;;;;;;1.57;0.50;;;;;;;;;;4986244;28;20401;-86
2023/01/02 14:34:45;;;;;;;1.43;0.43;;;;;;;;;;4966677;28;20432;-84
2023/01/02 14:37:11;;;;;;;1.40;0.47;;;;;;;;;;4982999;28;20420;-86
2023/01/02 14:39:37;;;;;;;0.97;0.20;;;;;;;;;;4975698;28;20414;-89
2023/01/02 14:45:14;;;;;;;0.50;0.10;;;;;;;;;;4984663;28;20389;-87
2023/01/02 14:47:42;;;;;;;2.70;0.33;;;;;;;;;;4984800;28;20567;-90
2023/01/02 14:50:13;;;;;;;1.93;0.30;;;;;;;;;;4984311;28;20462;-90
2023/01/02 14:52:44;;;;;;;0.73;0.20;;;;;;;;;;4984955;28;20408;-87
2023/01/02 14:55:14;;;;;;;1.03;0.30;;;;;;;;;;4985719;28;20756;-89
2023/01/02 14:57:43;;;;;;;0.83;0.30;;;;;;;;;;4984587;28;20398;-89
2023/01/02 15:00:19;;;;;;;1.83;0.20;;;;;;;;;;4983294;28;20421;-88
2023/01/02 15:02:47;;;;;;;0.50;0.20;;;;;;;;;;4978229;28;20403;-86
2023/01/02 15:05:17;;;;;;;1.17;0.20;;;;;;;;;;4974889;28;20417;-84
2023/01/02 15:07:46;;;;;;;0.77;0.27;;;;;;;;;;4974842;28;20490;-87